Time;durP1;ratioP1;P1;durP2;ratioP2;P2;SDS_P1;SDS_P2;PMS_P1;PMS_P2;Temp;Humidity;BMP_temperature;BMP_pressure;BME280_temperature;BME280_humidity;BME280_pressure;Samples;Min_cycle;Max_cycle;Signal;HPM_P1;HPM_P2
2022/03/29 00:00:17;;;;;;;;;;;;;;;6.12;41.95;100021.72;1715540;83;20212;-62
2022/03/29 00:03:18;;;;;;;;;;;;;;;6.18;41.83;100014.83;1703470;83;20493;-62
2022/03/29 00:06:25;;;;;;;;;;;;;;;6.22;41.78;100021.14;1715684;84;20224;-62
2022/03/29 00:09:31;;;;;;;;;;;;;;;6.26;41.71;100006.73;1715859;84;20196;-61
2022/03/29 00:12:41;;;;;;;;;;;;;;;6.31;41.53;100007.13;1720099;83;20188;-61
2022/03/29 00:20:23;;;;;;;;;;;;;;;6.44;41.28;99992.09;1709238;84;20265;-62
2022/03/29 00:23:27;;;;;;;;;;;;;;;6.49;41.11;99989.75;1666995;85;20238;-61
2022/03/29 00:26:32;;;;;;;;;;;;;;;6.51;41.05;99986.37;1702977;83;20200;-61
2022/03/29 00:29:37;;;;;;;;;;;;;;;6.54;40.79;99983.83;1715885;84;20212;-60
2022/03/29 00:32:43;;;;;;;;;;;;;;;6.58;40.65;99991.50;1715680;84;20184;-61
2022/03/29 00:35:49;;;;;;;;;;;;;;;6.62;40.39;99990.19;1715673;84;20204;-60
2022/03/29 00:38:57;;;;;;;;;;;;;;;6.67;40.27;99976.97;1715870;84;20268;-61
2022/03/29 00:42:08;;;;;;;;;;;;;;;6.71;40.12;99971.53;1715896;84;20224;-62
2022/03/29 00:45:17;;;;;;;;;;;;;;;6.75;39.84;99970.22;1714236;84;20202;-63
2022/03/29 00:48:28;;;;;;;;;;;;;;;6.78;39.88;99967.17;1715761;84;20532;-61
2022/03/29 00:51:31;;;;;;;;;;;;;;;6.79;39.70;99977.02;1715709;84;20204;-60
2022/03/29 00:54:40;;;;;;;;;;;;;;;6.84;39.47;99969.23;1715486;83;20208;-64
2022/03/29 00:57:45;;;;;;;;;;;;;;;6.85;39.38;99962.77;1682454;83;20563;-61
2022/03/29 01:00:51;;;;;;;;;;;;;;;6.86;39.33;99968.58;1679208;85;20227;-61
2022/03/29 01:04:00;;;;;;;;;;;;;;;6.86;39.17;99959.55;1630382;87;20529;-61
2022/03/29 01:07:06;;;;;;;;;;;;;;;6.88;39.21;99961.08;1705456;84;20245;-60
2022/03/29 01:10:12;;;;;;;;;;;;;;;6.87;39.18;99951.72;1705150;84;20601;-60
2022/03/29 01:13:19;;;;;;;;;;;;;;;6.84;39.27;99951.55;1705114;84;20556;-61
2022/03/29 01:19:52;;;;;;;;;;;;;;;6.81;39.41;99949.16;1704966;84;20212;-61
2022/03/29 01:22:58;;;;;;;;;;;;;;;6.77;39.38;99945.05;1704907;84;20188;-62
2022/03/29 01:26:03;;;;;;;;;;;;;;;6.78;39.41;99941.33;1704731;84;20248;-62
2022/03/29 01:29:07;;;;;;;;;;;;;;;6.75;39.45;99929.42;1704850;84;20799;-63
2022/03/29 01:32:15;;;;;;;;;;;;;;;6.76;39.38;99928.39;1704886;84;20244;-61
2022/03/29 01:35:25;;;;;;;;;;;;;;;6.77;39.26;99935.52;1704941;84;20252;-62
2022/03/29 01:38:31;;;;;;;;;;;;;;;6.80;39.19;99920.23;1647435;85;20274;-62
2022/03/29 01:41:39;;;;;;;;;;;;;;;6.81;39.08;99914.30;1631052;87;20197;-61
2022/03/29 01:44:43;;;;;;;;;;;;;;;6.86;38.97;99912.80;1653260;86;20202;-61
2022/03/29 01:47:49;;;;;;;;;;;;;;;6.89;38.77;99907.03;1652850;87;20218;-62
2022/03/29 01:50:56;;;;;;;;;;;;;;;6.95;38.71;99909.59;1645203;86;20197;-61
2022/03/29 01:54:04;;;;;;;;;;;;;;;6.99;38.62;99913.17;1673521;86;20222;-62
2022/03/29 01:57:09;;;;;;;;;;;;;;;7.02;38.59;99914.23;1652943;86;20238;-62
2022/03/29 02:00:33;;;;;;;;;;;;;;;7.04;38.54;99908.63;1713964;84;20252;-63
2022/03/29 02:03:38;;;;;;;;;;;;;;;7.06;38.51;99908.79;1715512;83;20236;-59
2022/03/29 02:06:43;;;;;;;;;;;;;;;7.06;38.53;99912.88;1715439;83;20220;-63
2022/03/29 02:09:47;;;;;;;;;;;;;;;7.07;38.56;99907.76;1715489;83;20192;-62
2022/03/29 02:12:54;;;;;;;;;;;;;;;7.06;38.62;99910.15;1714693;83;20207;-60
2022/03/29 02:16:03;;;;;;;;;;;;;;;7.05;38.69;99900.80;1715677;84;20200;-61
2022/03/29 02:19:08;;;;;;;;;;;;;;;7.01;38.85;99896.18;1715709;83;20196;-62
2022/03/29 02:22:13;;;;;;;;;;;;;;;6.99;38.84;99890.57;1715551;83;20239;-63
2022/03/29 02:25:21;;;;;;;;;;;;;;;6.96;38.94;99891.73;1701897;83;20208;-60
2022/03/29 02:28:26;;;;;;;;;;;;;;;6.95;39.02;99889.18;1715727;84;20244;-62
2022/03/29 02:31:31;;;;;;;;;;;;;;;6.91;39.12;99887.29;1685487;85;20203;-61
2022/03/29 02:34:35;;;;;;;;;;;;;;;6.89;39.22;99885.27;1716376;83;20204;-63
2022/03/29 02:37:40;;;;;;;;;;;;;;;6.86;39.38;99881.52;1715691;83;20220;-61
2022/03/29 02:40:47;;;;;;;;;;;;;;;6.83;39.38;99876.41;1715591;83;20188;-63
2022/03/29 02:43:52;;;;;;;;;;;;;;;6.80;39.48;99877.23;1715502;83;20216;-61
2022/03/29 02:46:57;;;;;;;;;;;;;;;6.79;39.53;99875.52;1709743;84;20197;-62
2022/03/29 02:50:02;;;;;;;;;;;;;;;6.74;39.61;99873.30;1711659;83;20200;-62
2022/03/29 02:53:11;;;;;;;;;;;;;;;6.72;39.72;99886.73;1715616;84;20216;-63
2022/03/29 02:56:18;;;;;;;;;;;;;;;6.68;39.85;99881.25;1715761;84;20228;-63
2022/03/29 02:59:23;;;;;;;;;;;;;;;6.64;40.02;99886.69;1716494;81;20223;-61
2022/03/29 03:02:29;;;;;;;;;;;;;;;6.56;40.21;99881.20;1716659;83;20532;-63
2022/03/29 03:05:40;;;;;;;;;;;;;;;6.49;40.36;99883.72;1709748;83;20212;-61
2022/03/29 03:08:45;;;;;;;;;;;;;;;6.44;40.51;99881.16;1708068;83;20240;-62
2022/03/29 03:11:50;;;;;;;;;;;;;;;6.37;40.63;99879.59;1708087;83;20224;-62
2022/03/29 03:14:56;;;;;;;;;;;;;;;6.30;40.80;99884.45;1708578;83;20201;-62
2022/03/29 03:18:09;;;;;;;;;;;;;;;6.22;40.92;99884.40;1707976;83;20189;-62
2022/03/29 03:21:15;;;;;;;;;;;;;;;6.13;41.13;99884.01;1707749;83;20204;-61
2022/03/29 03:24:19;;;;;;;;;;;;;;;6.05;41.29;99886.17;1708464;83;20559;-63
2022/03/29 03:27:25;;;;;;;;;;;;;;;5.98;41.46;99883.23;1708096;83;20196;-63
2022/03/29 03:30:30;;;;;;;;;;;;;;;5.89;41.67;99883.34;1707738;83;20204;-62
2022/03/29 03:33:34;;;;;;;;;;;;;;;5.83;41.89;99887.55;1708586;83;20201;-62
2022/03/29 03:36:39;;;;;;;;;;;;;;;5.76;42.11;99885.57;1707758;83;20197;-64
2022/03/29 03:39:45;;;;;;;;;;;;;;;5.71;42.30;99889.25;1708226;83;20182;-63
2022/03/29 03:42:52;;;;;;;;;;;;;;;5.65;42.53;99896.67;1708135;83;20209;-63
2022/03/29 03:45:56;;;;;;;;;;;;;;;5.59;42.73;99895.95;1707709;83;20232;-61
2022/03/29 03:49:02;;;;;;;;;;;;;;;5.55;42.96;99906.79;1707958;83;20256;-63
2022/03/29 03:52:15;;;;;;;;;;;;;;;5.49;43.17;99908.25;1708849;83;20538;-64
2022/03/29 03:55:20;;;;;;;;;;;;;;;5.47;43.36;99917.56;1707911;83;20220;-64
2022/03/29 03:58:27;;;;;;;;;;;;;;;5.45;43.44;99913.66;1710135;83;20229;-64
2022/03/29 04:01:36;;;;;;;;;;;;;;;5.44;43.57;99915.17;1705910;82;20209;-64
2022/03/29 04:04:41;;;;;;;;;;;;;;;5.43;43.74;99916.16;1707343;83;20228;-62
2022/03/29 04:07:49;;;;;;;;;;;;;;;5.44;43.88;99921.95;1707312;84;20216;-63
2022/03/29 04:10:56;;;;;;;;;;;;;;;5.43;44.06;99913.44;1708309;83;20212;-64
2022/03/29 04:14:00;;;;;;;;;;;;;;;5.45;44.10;99918.22;1707791;83;20189;-64
2022/03/29 04:17:05;;;;;;;;;;;;;;;5.46;44.16;99915.84;1708043;83;20239;-65
2022/03/29 04:20:15;;;;;;;;;;;;;;;5.46;44.30;99915.34;1708146;83;20448;-64
2022/03/29 04:23:23;;;;;;;;;;;;;;;5.48;44.46;99911.98;1707824;83;20308;-64
2022/03/29 04:26:29;;;;;;;;;;;;;;;5.52;44.51;99919.28;1707049;84;20224;-64
2022/03/29 04:29:36;;;;;;;;;;;;;;;5.57;44.50;99916.96;1707070;84;20204;-62
2022/03/29 04:32:43;;;;;;;;;;;;;;;5.62;44.53;99910.07;1690879;84;20216;-65
2022/03/29 04:35:47;;;;;;;;;;;;;;;5.66;44.58;99914.70;1707687;83;20244;-64
2022/03/29 04:38:52;;;;;;;;;;;;;;;5.72;44.60;99918.13;1707796;83;20232;-64
2022/03/29 04:41:58;;;;;;;;;;;;;;;5.77;44.75;99911.73;1708306;83;20220;-63
2022/03/29 04:45:05;;;;;;;;;;;;;;;5.84;44.74;99916.91;1707193;83;20220;-64
2022/03/29 04:48:11;;;;;;;;;;;;;;;5.91;44.78;99913.92;1703399;83;20260;-64
2022/03/29 04:51:19;;;;;;;;;;;;;;;5.98;44.77;99919.05;1679468;85;20242;-64
2022/03/29 04:54:27;;;;;;;;;;;;;;;6.05;44.86;99922.85;1679677;85;20716;-62
2022/03/29 04:57:31;;;;;;;;;;;;;;;6.10;44.89;99917.27;1680318;85;20547;-63
2022/03/29 05:00:40;;;;;;;;;;;;;;;6.17;44.96;99920.21;1678988;85;20494;-64
2022/03/29 05:03:48;;;;;;;;;;;;;;;6.24;45.07;99904.13;1688353;83;20629;-59
2022/03/29 05:06:55;;;;;;;;;;;;;;;6.33;45.15;99908.09;1712455;82;20220;-54
2022/03/29 05:10:00;;;;;;;;;;;;;;;6.42;45.05;99911.23;1706310;82;20188;-54
2022/03/29 05:13:05;;;;;;;;;;;;;;;6.52;44.96;99913.30;1700153;84;20243;-55
2022/03/29 05:16:10;;;;;;;;;;;;;;;6.61;44.94;99911.49;1703263;83;20216;-53
2022/03/29 05:19:17;;;;;;;;;;;;;;;6.70;44.88;99903.70;1698500;84;20577;-54
2022/03/29 05:22:21;;;;;;;;;;;;;;;6.79;44.78;99893.20;1691518;83;20559;-55
2022/03/29 05:25:29;;;;;;;;;;;;;;;6.88;44.80;99897.67;1680456;84;20276;-54
2022/03/29 05:28:35;;;;;;;;;;;;;;;6.96;44.76;99887.66;1698954;84;20236;-56
2022/03/29 05:31:39;;;;;;;;;;;;;;;7.06;44.62;99887.02;1697437;83;20277;-55
2022/03/29 05:34:44;;;;;;;;;;;;;;;7.13;44.45;99881.27;1698220;84;20236;-54
2022/03/29 05:37:49;;;;;;;;;;;;;;;7.23;44.28;99887.39;1694488;83;20220;-55
2022/03/29 05:40:56;;;;;;;;;;;;;;;7.30;44.30;99877.55;1701781;83;20203;-54
2022/03/29 05:44:00;;;;;;;;;;;;;;;7.37;43.96;99870.41;1690895;83;20511;-54
2022/03/29 05:50:29;;;;;;;;;;;;;;;7.54;43.95;99868.06;1702324;83;20207;-55
2022/03/29 05:53:35;;;;;;;;;;;;;;;7.66;43.91;99879.98;1696625;83;20636;-54
2022/03/29 05:56:42;;;;;;;;;;;;;;;7.77;43.67;99898.72;1698142;84;20249;-54
2022/03/29 05:59:55;;;;;;;;;;;;;;;7.85;43.46;99885.09;1697718;83;20209;-55
2022/03/29 06:03:02;;;;;;;;;;;;;;;7.94;43.40;99893.59;1673090;82;20560;-55
2022/03/29 06:06:08;;;;;;;;;;;;;;;8.02;42.96;99901.77;1682544;83;20216;-54
2022/03/29 06:09:11;;;;;;;;;;;;;;;8.13;42.79;99895.97;1673259;84;20534;-54
2022/03/29 06:12:17;;;;;;;;;;;;;;;8.23;42.74;99894.78;1678387;84;20225;-54
2022/03/29 06:15:25;;;;;;;;;;;;;;;8.35;42.34;99892.55;1698006;83;20261;-54
2022/03/29 06:18:31;;;;;;;;;;;;;;;8.49;42.27;99885.02;1688357;84;20225;-54
2022/03/29 06:21:38;;;;;;;;;;;;;;;8.64;41.99;99888.20;1684557;83;20207;-55
2022/03/29 06:24:45;;;;;;;;;;;;;;;8.79;41.71;99886.97;1690985;84;20253;-53
2022/03/29 06:27:54;;;;;;;;;;;;;;;8.93;41.53;99886.22;1698011;84;20265;-55
2022/03/29 06:31:03;;;;;;;;;;;;;;;9.06;41.34;99875.08;1685611;83;20248;-55
2022/03/29 06:34:11;;;;;;;;;;;;;;;9.25;41.01;99881.10;1685906;83;20515;-56
2022/03/29 06:37:20;;;;;;;;;;;;;;;9.46;40.33;99881.32;1690565;83;20217;-56
2022/03/29 06:40:25;;;;;;;;;;;;;;;9.66;39.61;99864.77;1687931;83;20651;-55
2022/03/29 06:43:36;;;;;;;;;;;;;;;9.85;39.30;99854.20;1714776;82;20211;-54
2022/03/29 06:46:44;;;;;;;;;;;;;;;10.03;38.80;99856.09;1703578;82;20540;-57
2022/03/29 06:49:48;;;;;;;;;;;;;;;10.19;38.23;99851.02;1682619;83;20209;-55
2022/03/29 06:53:01;;;;;;;;;;;;;;;10.32;38.00;99846.58;1702241;83;20623;-56
2022/03/29 06:56:07;;;;;;;;;;;;;;;10.46;37.80;99848.47;1683297;83;20576;-55
2022/03/29 06:59:13;;;;;;;;;;;;;;;10.61;37.80;99844.91;1672851;84;20197;-57
2022/03/29 07:02:41;;;;;;;;;;;;;;;10.74;37.58;99850.55;1687508;83;20568;-57
2022/03/29 07:05:48;;;;;;;;;;;;;;;10.88;37.28;99846.98;1687435;80;20206;-56
2022/03/29 07:12:21;;;;;;;;;;;;;;;11.15;37.03;99843.50;1682557;85;20221;-56
2022/03/29 07:15:26;;;;;;;;;;;;;;;11.30;36.81;99834.22;1689940;83;20224;-59
2022/03/29 07:18:35;;;;;;;;;;;;;;;11.44;36.80;99855.75;1671509;86;20258;-57
2022/03/29 07:21:39;;;;;;;;;;;;;;;11.53;36.51;99836.25;1685141;82;20605;-54
2022/03/29 07:24:46;;;;;;;;;;;;;;;11.63;36.59;99843.67;1696424;82;20232;-56
2022/03/29 07:27:53;;;;;;;;;;;;;;;11.74;36.51;99830.80;1694048;83;20593;-55
2022/03/29 07:30:59;;;;;;;;;;;;;;;11.84;36.41;99829.10;1677071;84;20193;-57
2022/03/29 07:34:05;;;;;;;;;;;;;;;11.92;36.34;99834.45;1697938;84;20245;-55
2022/03/29 07:37:12;;;;;;;;;;;;;;;12.01;36.27;99845.08;1697760;84;20221;-54
2022/03/29 07:40:24;;;;;;;;;;;;;;;12.10;36.23;99824.36;1688841;84;20514;-66
2022/03/29 07:43:32;;;;;;;;;;;;;;;12.19;36.36;99828.64;1672601;85;20251;-56
2022/03/29 07:46:36;;;;;;;;;;;;;;;12.27;36.06;99815.64;1683087;84;20846;-56
2022/03/29 07:49:43;;;;;;;;;;;;;;;12.34;36.07;99812.39;1721709;82;20265;-56
2022/03/29 07:52:52;;;;;;;;;;;;;;;12.43;36.32;99807.05;1712696;83;20498;-56
2022/03/29 07:55:59;;;;;;;;;;;;;;;12.53;36.06;99795.20;1709234;82;20241;-56
2022/03/29 07:59:07;;;;;;;;;;;;;;;12.63;36.12;99798.44;1672170;85;20205;-54
2022/03/29 08:02:13;;;;;;;;;;;;;;;12.70;36.09;99802.04;1687731;84;20192;-54
2022/03/29 08:05:19;;;;;;;;;;;;;;;12.79;36.18;99800.84;1650989;84;20701;-55
2022/03/29 08:08:26;;;;;;;;;;;;;;;12.89;35.99;99790.84;1635930;86;20238;-55
2022/03/29 08:11:36;;;;;;;;;;;;;;;12.97;36.27;99789.30;1631817;85;20735;-56
2022/03/29 08:14:45;;;;;;;;;;;;;;;13.11;36.09;99782.27;1641078;87;20269;-55
2022/03/29 08:17:53;;;;;;;;;;;;;;;13.23;36.04;99789.40;1651676;85;20264;-57
2022/03/29 08:21:01;;;;;;;;;;;;;;;13.35;35.71;99788.58;1679347;83;20490;-55
2022/03/29 08:24:12;;;;;;;;;;;;;;;13.45;35.61;99775.80;1701604;84;20607;-60
2022/03/29 08:27:18;;;;;;;;;;;;;;;13.53;35.82;99784.72;1669220;83;20238;-54
2022/03/29 08:30:28;;;;;;;;;;;;;;;13.65;35.62;99769.82;1724975;82;20211;-57
2022/03/29 08:33:33;;;;;;;;;;;;;;;13.79;35.66;99773.41;1695445;83;20209;-56
2022/03/29 08:36:43;;;;;;;;;;;;;;;13.91;35.66;99774.45;1685988;84;20222;-54
2022/03/29 08:40:00;;;;;;;;;;;;;;;14.03;35.37;99765.37;1686041;84;20209;-56
2022/03/29 08:43:05;;;;;;;;;;;;;;;14.18;35.41;99777.52;1694250;83;20600;-56
2022/03/29 08:46:19;;;;;;;;;;;;;;;14.32;35.27;99772.33;1667826;84;20207;-57
2022/03/29 08:49:24;;;;;;;;;;;;;;;14.46;34.89;99778.98;1670473;84;20244;-55
2022/03/29 08:52:33;;;;;;;;;;;;;;;14.58;34.77;99759.37;1695400;83;20654;-58
2022/03/29 08:55:52;;;;;;;;;;;;;;;14.74;34.90;99762.16;1691292;83;20592;-57
2022/03/29 08:58:59;;;;;;;;;;;;;;;14.93;34.82;99752.45;1724908;83;20206;-57
2022/03/29 09:02:07;;;;;;;;;;;;;;;15.14;34.54;99746.30;1724267;83;20207;-60
2022/03/29 09:05:21;;;;;;;;;;;;;;;15.26;34.37;99740.38;1686275;84;20213;-63
2022/03/29 09:08:32;;;;;;;;;;;;;;;15.34;34.40;99741.49;1628494;88;20223;-61
2022/03/29 09:11:48;;;;;;;;;;;;;;;15.43;34.44;99725.05;1677035;83;20234;-65
2022/03/29 09:15:08;;;;;;;;;;;;;;;15.52;34.50;99723.70;1700710;82;20276;-63
2022/03/29 09:18:18;;;;;;;;;;;;;;;15.63;34.64;99732.63;1698073;82;20216;-64
2022/03/29 09:21:25;;;;;;;;;;;;;;;15.73;34.49;99722.77;1699943;82;20556;-65
2022/03/29 09:24:35;;;;;;;;;;;;;;;15.81;34.48;99716.14;1700341;84;20232;-65
2022/03/29 09:27:56;;;;;;;;;;;;;;;15.92;34.54;99719.55;1679142;82;20216;-67
2022/03/29 09:31:05;;;;;;;;;;;;;;;16.04;34.39;99699.77;1683841;83;20207;-63
2022/03/29 09:34:27;;;;;;;;;;;;;;;16.14;34.56;99695.97;1679014;82;20204;-59
2022/03/29 09:37:44;;;;;;;;;;;;;;;16.29;34.58;99695.89;1696495;83;20477;-61
2022/03/29 09:40:53;;;;;;;;;;;;;;;16.43;34.86;99693.29;1705415;84;20228;-63
2022/03/29 09:44:12;;;;;;;;;;;;;;;16.62;35.15;99687.80;1708185;82;20585;-68
2022/03/29 09:47:23;;;;;;;;;;;;;;;16.78;34.40;99682.99;1700255;84;20220;-64
2022/03/29 09:50:34;;;;;;;;;;;;;;;16.85;34.37;99681.00;1698723;83;20212;-64
2022/03/29 09:53:51;;;;;;;;;;;;;;;16.96;34.61;99673.30;1704345;82;20218;-62
2022/03/29 09:57:02;;;;;;;;;;;;;;;17.09;34.76;99684.17;1716078;83;20214;-62
2022/03/29 10:00:12;;;;;;;;;;;;;;;17.22;34.79;99686.75;1662145;84;20561;-58
2022/03/29 10:03:19;;;;;;;;;;;;;;;17.29;34.50;99674.50;1664419;84;20270;-65
2022/03/29 10:06:31;;;;;;;;;;;;;;;17.42;34.97;99673.45;1641451;86;20229;-64
2022/03/29 10:09:43;;;;;;;;;;;;;;;17.58;34.83;99676.95;1655218;84;20243;-63
2022/03/29 10:12:50;;;;;;;;;;;;;;;17.64;34.58;99669.06;1699868;84;20228;-63
2022/03/29 10:16:02;;;;;;;;;;;;;;;17.68;34.69;99664.73;1681982;84;20218;-59
2022/03/29 10:19:09;;;;;;;;;;;;;;;17.79;34.88;99662.54;1688771;84;20311;-58
2022/03/29 10:22:27;;;;;;;;;;;;;;;17.92;34.55;99669.20;1691259;84;20604;-57
2022/03/29 10:25:36;;;;;;;;;;;;;;;18.03;34.22;99653.13;1695675;83;20543;-60
2022/03/29 10:28:46;;;;;;;;;;;;;;;18.16;34.27;99639.56;1673611;84;20227;-60
2022/03/29 10:32:07;;;;;;;;;;;;;;;18.27;33.95;99649.78;1695235;84;20424;-62
2022/03/29 10:35:16;;;;;;;;;;;;;;;18.31;34.15;99639.38;1699544;84;20249;-58
2022/03/29 10:38:23;;;;;;;;;;;;;;;18.35;34.08;99633.64;1700257;84;20240;-58
2022/03/29 10:41:40;;;;;;;;;;;;;;;18.44;34.08;99623.88;1703394;83;20550;-61
2022/03/29 10:45:22;;;;;;;;;;;;;;;18.58;34.20;99623.92;1692924;83;20617;-60
2022/03/29 10:48:29;;;;;;;;;;;;;;;18.74;33.61;99613.98;1699598;84;20220;-59
2022/03/29 10:51:37;;;;;;;;;;;;;;;18.93;33.32;99622.40;1712069;82;20210;-59
2022/03/29 10:54:50;;;;;;;;;;;;;;;19.10;33.46;99591.36;1731079;81;20222;-58
2022/03/29 10:58:20;;;;;;;;;;;;;;;19.29;33.30;99607.58;1718846;82;20281;-57
2022/03/29 11:01:28;;;;;;;;;;;;;;;19.30;33.09;99585.66;1704673;82;20232;-59
2022/03/29 11:04:36;;;;;;;;;;;;;;;19.26;33.35;99581.69;1694629;82;20613;-59
2022/03/29 11:07:50;;;;;;;;;;;;;;;19.32;33.13;99577.08;1669605;81;20591;-59
2022/03/29 11:10:55;;;;;;;;;;;;;;;19.45;33.44;99566.18;1629518;85;20236;-60
2022/03/29 11:14:03;;;;;;;;;;;;;;;19.64;33.12;99571.77;1621860;85;20260;-62
2022/03/29 11:17:18;;;;;;;;;;;;;;;19.70;32.94;99584.63;1644541;85;20580;-60
2022/03/29 11:20:42;;;;;;;;;;;;;;;19.68;32.79;99571.56;1694679;83;20213;-60
2022/03/29 11:23:54;;;;;;;;;;;;;;;19.68;32.85;99561.84;1671144;84;20432;-62
2022/03/29 11:27:02;;;;;;;;;;;;;;;19.71;32.64;99558.55;1691770;83;20218;-60
2022/03/29 11:30:15;;;;;;;;;;;;;;;19.73;32.08;99568.30;1683358;83;20240;-61
2022/03/29 11:33:21;;;;;;;;;;;;;;;19.75;32.26;99560.56;1692693;83;20504;-60
2022/03/29 11:36:32;;;;;;;;;;;;;;;19.81;32.08;99555.91;1686270;83;20251;-61
2022/03/29 11:39:41;;;;;;;;;;;;;;;19.72;31.96;99550.50;1694813;83;20223;-60
2022/03/29 11:42:53;;;;;;;;;;;;;;;19.69;31.95;99544.08;1695621;83;20518;-58
2022/03/29 11:46:05;;;;;;;;;;;;;;;19.89;31.62;99538.27;1696185;83;20260;-59
2022/03/29 11:49:30;;;;;;;;;;;;;;;20.07;31.43;99533.80;1661148;85;20257;-61
2022/03/29 11:52:24;;;;;;;;;;;;;;;20.26;30.99;99532.95;1682274;84;20213;-58
2022/03/29 11:55:30;;;;;;;;;;;;;;;20.36;30.67;99518.63;1703271;83;20213;-59
2022/03/29 11:58:38;;;;;;;;;;;;;;;20.48;30.78;99520.73;1686281;83;20226;-59
2022/03/29 12:01:50;;;;;;;;;;;;;;;20.64;30.22;99538.41;1674895;84;20226;-57
2022/03/29 12:05:02;;;;;;;;;;;;;;;20.75;30.14;99517.95;1696645;83;20216;-60
2022/03/29 12:08:10;;;;;;;;;;;;;;;20.88;30.03;99522.25;1705931;83;20204;-60
2022/03/29 12:11:15;;;;;;;;;;;;;;;21.03;29.24;99521.87;1708926;83;20581;-60
2022/03/29 12:14:25;;;;;;;;;;;;;;;21.16;29.11;99514.48;1706143;84;20572;-60
2022/03/29 12:17:39;;;;;;;;;;;;;;;21.33;29.03;99524.91;1698234;82;20513;-60
2022/03/29 12:20:42;;;;;;;;;;;;;;;21.37;28.66;99519.66;1705245;83;20527;-60
2022/03/29 12:23:49;;;;;;;;;;;;;;;21.22;28.62;99496.70;1705913;84;20608;-63
2022/03/29 12:27:13;;;;;;;;;;;;;;;21.22;28.46;99504.20;1705998;84;20248;-60
2022/03/29 12:30:26;;;;;;;;;;;;;;;21.23;28.15;99480.27;1706064;83;20232;-59
2022/03/29 12:33:40;;;;;;;;;;;;;;;21.35;28.21;99468.95;1724372;82;20206;-60
2022/03/29 12:36:47;;;;;;;;;;;;;;;21.48;27.90;99470.73;1730869;81;20250;-60
2022/03/29 12:39:54;;;;;;;;;;;;;;;21.57;27.48;99472.44;1710651;82;20203;-60
2022/03/29 12:43:08;;;;;;;;;;;;;;;21.66;27.64;99461.91;1654337;85;20202;-58
2022/03/29 12:46:19;;;;;;;;;;;;;;;21.78;27.16;99461.74;1679128;85;20206;-59
2022/03/29 12:49:27;;;;;;;;;;;;;;;21.80;27.09;99457.56;1682312;83;20244;-59
2022/03/29 12:52:37;;;;;;;;;;;;;;;21.77;26.94;99472.03;1692322;84;20256;-60
2022/03/29 12:55:55;;;;;;;;;;;;;;;21.62;26.57;99455.22;1698383;82;20282;-61
2022/03/29 12:59:05;;;;;;;;;;;;;;;21.43;26.79;99463.73;1708201;84;20220;-59
2022/03/29 13:02:25;;;;;;;;;;;;;;;21.25;26.65;99455.80;1708656;82;20233;-58
2022/03/29 13:05:35;;;;;;;;;;;;;;;21.05;26.77;99454.80;1700217;82;20224;-60
2022/03/29 13:08:42;;;;;;;;;;;;;;;20.95;27.14;99455.53;1681486;84;20213;-63
2022/03/29 13:11:53;;;;;;;;;;;;;;;20.83;26.58;99459.87;1711018;81;20179;-60
2022/03/29 13:15:02;;;;;;;;;;;;;;;20.65;26.72;99446.91;1674362;85;20248;-60
2022/03/29 13:18:08;;;;;;;;;;;;;;;20.52;26.72;99437.59;1640243;87;20265;-58
2022/03/29 13:21:27;;;;;;;;;;;;;;;20.44;26.97;99443.09;1670845;85;20241;-59
2022/03/29 13:24:46;;;;;;;;;;;;;;;20.38;27.10;99431.63;1665246;85;20216;-61
2022/03/29 13:27:51;;;;;;;;;;;;;;;20.43;27.14;99423.89;1665186;86;20222;-60
2022/03/29 13:31:00;;;;;;;;;;;;;;;20.61;26.90;99416.00;1665941;86;20195;-59
2022/03/29 13:34:03;;;;;;;;;;;;;;;20.80;26.75;99416.47;1669530;85;20290;-59
2022/03/29 13:37:12;;;;;;;;;;;;;;;20.91;26.50;99411.81;1679126;85;20213;-60
2022/03/29 13:40:18;;;;;;;;;;;;;;;20.98;26.04;99408.30;1660828;86;20543;-59
2022/03/29 13:43:27;;;;;;;;;;;;;;;21.01;26.30;99405.80;1622331;86;20499;-60
2022/03/29 13:46:37;;;;;;;;;;;;;;;21.07;25.97;99400.57;1640413;86;20218;-59
2022/03/29 13:49:44;;;;;;;;;;;;;;;21.13;26.36;99392.53;1653379;85;20343;-59
2022/03/29 13:52:51;;;;;;;;;;;;;;;21.25;25.95;99395.12;1659176;86;20256;-60
2022/03/29 13:55:56;;;;;;;;;;;;;;;21.21;25.79;99399.00;1654013;86;20207;-61
2022/03/29 13:59:03;;;;;;;;;;;;;;;21.02;25.68;99393.58;1647555;86;20283;-59
2022/03/29 14:02:11;;;;;;;;;;;;;;;20.82;26.27;99386.41;1667094;86;20211;-60
2022/03/29 14:05:17;;;;;;;;;;;;;;;20.74;26.09;99387.75;1667024;86;20282;-61
2022/03/29 14:08:31;;;;;;;;;;;;;;;20.64;26.23;99386.27;1650979;86;20546;-60
2022/03/29 14:11:39;;;;;;;;;;;;;;;20.59;26.26;99379.83;1658089;85;20199;-61
2022/03/29 14:14:50;;;;;;;;;;;;;;;20.50;26.37;99383.64;1671705;81;20223;-63
2022/03/29 14:17:55;;;;;;;;;;;;;;;20.36;26.38;99387.14;1671566;86;20207;-61
2022/03/29 14:21:04;;;;;;;;;;;;;;;20.25;26.49;99371.44;1666992;85;20226;-60
2022/03/29 14:24:14;;;;;;;;;;;;;;;20.16;26.74;99367.46;1655842;86;20589;-59
2022/03/29 14:27:21;;;;;;;;;;;;;;;20.11;26.88;99361.27;1663525;86;20224;-59
2022/03/29 14:30:30;;;;;;;;;;;;;;;20.07;26.64;99370.40;1660350;85;20545;-62
2022/03/29 14:33:41;;;;;;;;;;;;;;;19.97;26.83;99355.00;1660901;85;20537;-62
2022/03/29 14:36:46;;;;;;;;;;;;;;;19.91;26.96;99346.33;1634959;88;20226;-62
2022/03/29 14:39:54;;;;;;;;;;;;;;;19.84;27.29;99349.84;1611612;88;20225;-61
2022/03/29 14:43:13;;;;;;;;;;;;;;;19.80;27.38;99351.48;1635214;87;20230;-63
2022/03/29 14:46:28;;;;;;;;;;;;;;;19.76;27.59;99345.60;1851342;76;20539;-62
2022/03/29 15:06:17;;;;;;;;;;;;;;;19.40;28.13;99355.98;1864467;75;20248;-62
2022/03/29 15:09:03;;;;;;;;;;;;;;;19.29;28.33;99346.70;1846318;76;20319;-60
2022/03/29 15:12:15;;;;;;;;;;;;;;;19.18;28.52;99349.55;1824390;77;20522;-62
2022/03/29 15:19:32;;;;;;;;;;;;;;;18.92;28.81;99349.73;1867518;75;20303;-61
2022/03/29 15:23:13;;;;;;;;;;;;;;;18.80;29.02;99353.70;1907549;74;20241;-63
2022/03/29 15:26:26;;;;;;;;;;;;;;;18.64;29.18;99354.02;1858736;74;20295;-62
2022/03/29 15:29:43;;;;;;;;;;;;;;;18.55;29.37;99362.44;1854110;74;20220;-63
2022/03/29 15:33:05;;;;;;;;;;;;;;;18.43;29.44;99366.38;1791968;79;20278;-64
2022/03/29 15:36:35;;;;;;;;;;;;;;;18.34;29.43;99375.64;1791788;78;20554;-60
2022/03/29 16:00:54;;;;;;;;;;;;;;;16.28;43.71;99464.95;1813510;77;20205;-61
2022/03/29 16:04:02;;;;;;;;;;;;;;;16.07;44.42;99482.05;1782377;76;20591;-61
2022/03/29 16:07:14;;;;;;;;;;;;;;;15.90;45.62;99493.40;1795296;77;20253;-60
2022/03/29 16:10:25;;;;;;;;;;;;;;;15.71;46.44;99497.28;1805114;77;20264;-60
2022/03/29 16:13:34;;;;;;;;;;;;;;;15.54;47.28;99504.45;1785907;77;20213;-61
2022/03/29 16:16:42;;;;;;;;;;;;;;;15.41;47.82;99527.20;1794293;78;20242;-61
2022/03/29 16:19:51;;;;;;;;;;;;;;;15.31;48.10;99524.08;1729297;79;20230;-62
2022/03/29 16:22:57;;;;;;;;;;;;;;;15.20;48.23;99516.03;1735256;79;20228;-61
2022/03/29 16:26:02;;;;;;;;;;;;;;;15.16;48.73;99524.98;1734031;78;20210;-60
2022/03/29 16:29:10;;;;;;;;;;;;;;;15.06;49.15;99517.23;1710010;78;20269;-61
2022/03/29 16:32:15;;;;;;;;;;;;;;;14.93;49.96;99520.95;1728489;80;20206;-62
2022/03/29 16:35:20;;;;;;;;;;;;;;;14.80;50.55;99525.17;1722560;78;20574;-62
2022/03/29 16:38:28;;;;;;;;;;;;;;;14.66;50.93;99530.48;1792342;78;20336;-61
2022/03/29 16:41:37;;;;;;;;;;;;;;;14.56;51.19;99526.51;1785451;76;20182;-61
2022/03/29 16:44:47;;;;;;;;;;;;;;;14.51;51.36;99534.59;1798777;76;20268;-61
2022/03/29 16:48:32;;;;;;;;;;;;;;;14.47;51.40;99541.62;1796684;76;20254;-60
2022/03/29 16:52:16;;;;;;;;;;;;;;;14.40;51.41;99532.02;1784860;76;20234;-61
2022/03/29 16:55:23;;;;;;;;;;;;;;;14.36;51.52;99523.05;1801955;76;20249;-60
2022/03/29 17:05:55;;;;;;;;;;;;;;;14.29;51.84;99545.63;1753244;81;20567;-60
2022/03/29 17:09:05;;;;;;;;;;;;;;;14.27;51.95;99543.65;1804519;79;20233;-62
2022/03/29 17:16:24;;;;;;;;;;;;;;;14.30;52.11;99573.48;1833505;76;20480;-61
2022/03/29 17:26:51;;;;;;;;;;;;;;;14.24;52.59;99616.48;1773337;81;20199;-63
2022/03/29 17:30:17;;;;;;;;;;;;;;;14.24;52.73;99619.24;1774162;81;20560;-60
2022/03/29 17:37:16;;;;;;;;;;;;;;;14.20;53.24;99608.86;1772391;81;20317;-59
2022/03/29 17:40:45;;;;;;;;;;;;;;;14.10;53.84;99572.69;1842634;78;20206;-60
2022/03/29 17:43:52;;;;;;;;;;;;;;;14.01;54.00;99554.73;1837712;78;20195;-59
2022/03/29 17:50:37;;;;;;;;;;;;;;;13.86;54.30;99591.31;1837716;78;20215;-60